createdAt,value
2018-07-28T00:00:14.711Z,6.40
2018-07-28T00:02:42.265Z,6.85
2018-07-28T00:05:09.818Z,7.00
2018-07-28T00:07:38.184Z,7.27
2018-07-28T00:10:05.738Z,7.20
2018-07-28T00:12:33.304Z,7.83
2018-07-28T00:15:00.907Z,7.20
2018-07-28T00:17:28.467Z,7.90
2018-07-28T00:19:56.056Z,7.67
2018-07-28T00:22:23.655Z,7.60
2018-07-28T00:24:51.212Z,7.13
2018-07-28T00:27:18.769Z,6.80
2018-07-28T00:29:46.364Z,8.65
2018-07-28T00:32:14.704Z,7.75
2018-07-28T00:34:42.256Z,7.47
2018-07-28T00:37:09.842Z,7.18
2018-07-28T00:39:37.416Z,5.70
2018-07-28T00:42:05.740Z,6.63
2018-07-28T00:44:33.352Z,6.40
2018-07-28T00:47:00.934Z,5.87
2018-07-28T00:49:28.492Z,5.67
2018-07-28T00:51:56.849Z,5.60
2018-07-28T00:54:24.400Z,5.07
2018-07-28T00:56:51.952Z,5.37
2018-07-28T00:59:19.545Z,5.30
2018-07-28T01:01:47.867Z,5.30
2018-07-28T01:04:15.424Z,5.93
2018-07-28T01:06:44.428Z,6.07
2018-07-28T01:09:11.991Z,5.40
2018-07-28T01:11:39.557Z,6.10
2018-07-28T01:14:07.153Z,7.10
2018-07-28T01:16:34.712Z,5.10
2018-07-28T01:19:02.276Z,5.90
2018-07-28T01:21:29.860Z,5.10
2018-07-28T01:23:57.428Z,5.57
2018-07-28T01:26:24.988Z,5.23
2018-07-28T01:28:52.601Z,5.27
2018-07-28T01:31:20.160Z,5.17
2018-07-28T01:33:47.715Z,5.03
2018-07-28T01:36:15.303Z,5.63
2018-07-28T01:38:42.860Z,5.25
2018-07-28T01:41:10.423Z,5.20
2018-07-28T01:43:38.026Z,5.20
2018-07-28T01:46:05.581Z,4.77
2018-07-28T01:48:33.132Z,4.87
2018-07-28T01:51:01.091Z,5.03
2018-07-28T01:53:29.410Z,4.57
2018-07-28T01:55:56.960Z,4.83
2018-07-28T01:58:24.554Z,4.63
2018-07-28T02:00:52.106Z,4.77
2018-07-28T02:03:19.663Z,5.57
2018-07-28T02:05:47.254Z,4.83
2018-07-28T02:08:14.807Z,5.00
2018-07-28T02:10:42.369Z,4.87
2018-07-28T02:13:09.968Z,5.57
2018-07-28T02:15:38.293Z,5.68
2018-07-28T02:18:05.852Z,5.47
2018-07-28T02:20:33.435Z,5.30
2018-07-28T02:23:00.990Z,5.17
2018-07-28T02:25:28.556Z,5.25
2018-07-28T02:27:56.147Z,5.12
2018-07-28T02:30:24.474Z,5.55
2018-07-28T02:32:52.036Z,5.23
2018-07-28T02:35:20.007Z,5.13
2018-07-28T02:37:47.564Z,4.93
2018-07-28T02:40:15.125Z,5.30
2018-07-28T02:42:42.708Z,4.87
2018-07-28T02:45:10.265Z,5.17
2018-07-28T02:47:37.816Z,5.47
2018-07-28T02:50:05.406Z,4.97
2018-07-28T02:52:32.968Z,4.83
2018-07-28T02:55:00.528Z,5.13
2018-07-28T02:57:28.679Z,5.17
2018-07-28T02:59:56.232Z,5.37
2018-07-28T03:02:23.789Z,5.13
2018-07-28T03:04:51.391Z,5.30
2018-07-28T03:07:18.948Z,5.27
2018-07-28T03:09:46.516Z,5.23
2018-07-28T03:12:14.872Z,4.83
2018-07-28T03:14:42.434Z,4.83
2018-07-28T03:17:09.995Z,4.93
2018-07-28T03:19:37.589Z,5.65
2018-07-28T03:22:05.910Z,4.83
2018-07-28T03:24:33.462Z,5.07
2018-07-28T03:27:01.044Z,5.43
2018-07-28T03:29:28.602Z,5.23
2018-07-28T03:31:56.165Z,5.10
2018-07-28T03:34:23.750Z,4.77
2018-07-28T03:36:51.305Z,5.27
2018-07-28T03:39:18.868Z,6.07
2018-07-28T03:41:46.968Z,4.83
2018-07-28T03:44:14.514Z,4.87
2018-07-28T03:46:42.069Z,4.87
2018-07-28T03:49:09.671Z,5.33
2018-07-28T03:51:37.223Z,5.10
2018-07-28T03:54:05.540Z,5.17
2018-07-28T03:56:33.151Z,5.17
2018-07-28T03:59:00.695Z,4.80
2018-07-28T04:01:28.249Z,5.50
2018-07-28T04:03:55.861Z,5.50
2018-07-28T04:06:23.413Z,5.60
2018-07-28T04:08:50.967Z,5.27
2018-07-28T04:11:18.552Z,5.47
2018-07-28T04:13:46.104Z,5.33
2018-07-28T04:16:13.660Z,5.10
2018-07-28T04:18:41.251Z,4.83
2018-07-28T04:21:08.803Z,5.23
2018-07-28T04:23:36.355Z,5.33
2018-07-28T04:26:03.948Z,5.70
2018-07-28T04:28:31.551Z,5.87
2018-07-28T04:30:59.063Z,5.50
2018-07-28T04:33:26.656Z,6.10
2018-07-28T04:35:54.981Z,6.28
2018-07-28T04:38:22.535Z,5.50
2018-07-28T04:40:50.128Z,5.10
2018-07-28T04:43:17.685Z,5.33
2018-07-28T04:45:45.242Z,5.47
2018-07-28T04:48:12.855Z,5.43
2018-07-28T04:50:41.180Z,5.60
2018-07-28T04:53:08.738Z,5.43
2018-07-28T04:55:36.362Z,5.97
2018-07-28T04:58:04.679Z,5.60
2018-07-28T05:00:32.234Z,5.77
2018-07-28T05:02:59.829Z,5.77
2018-07-28T05:05:27.379Z,6.13
2018-07-28T05:07:54.937Z,5.27
2018-07-28T05:10:23.047Z,5.80
2018-07-28T05:12:51.369Z,6.22
2018-07-28T05:15:18.922Z,5.30
2018-07-28T05:17:46.513Z,5.67
2018-07-28T05:20:14.067Z,5.40
2018-07-28T05:22:41.618Z,5.23
2018-07-28T05:25:09.214Z,5.80
2018-07-28T05:27:36.769Z,5.87
2018-07-28T05:30:04.329Z,5.78
2018-07-28T05:32:33.080Z,5.87
2018-07-28T05:35:00.635Z,5.10
2018-07-28T05:37:28.195Z,5.40
2018-07-28T05:39:55.784Z,5.60
2018-07-28T05:42:23.336Z,5.50
2018-07-28T05:44:50.891Z,5.63
2018-07-28T05:47:18.473Z,5.17
2018-07-28T05:49:46.031Z,5.33
2018-07-28T05:52:13.593Z,5.40
2018-07-28T05:54:41.563Z,5.77
2018-07-28T05:57:09.117Z,5.70
2018-07-28T05:59:36.670Z,5.57
2018-07-28T06:02:04.261Z,5.60
2018-07-28T06:04:31.820Z,5.70
2018-07-28T06:06:59.377Z,5.90
2018-07-28T06:09:26.977Z,6.00
2018-07-28T06:11:55.306Z,6.50
2018-07-28T06:14:22.975Z,5.87
2018-07-28T06:16:50.596Z,5.87
2018-07-28T06:19:18.161Z,6.40
2018-07-28T06:21:45.726Z,5.53
2018-07-28T06:24:13.319Z,5.73
2018-07-28T06:26:40.912Z,5.33
2018-07-28T06:29:08.469Z,5.67
2018-07-28T06:31:36.460Z,5.90
2018-07-28T06:34:03.978Z,5.27
2018-07-28T06:36:31.599Z,5.97
2018-07-28T06:38:59.153Z,6.47
2018-07-28T06:41:26.708Z,6.35
2018-07-28T06:43:54.269Z,5.70
2018-07-28T06:46:21.865Z,6.03
2018-07-28T06:48:49.428Z,5.30
2018-07-28T06:51:16.983Z,6.00
2018-07-28T06:53:44.607Z,5.90
2018-07-28T06:56:12.126Z,6.10
2018-07-28T06:58:39.722Z,6.10
2018-07-28T07:01:07.647Z,5.63
2018-07-28T07:03:35.204Z,5.87
2018-07-28T07:06:14.744Z,5.93
2018-07-28T07:08:42.291Z,6.30
2018-07-28T07:11:09.865Z,5.83
2018-07-28T07:13:37.431Z,5.47
2018-07-28T07:16:04.991Z,6.03
2018-07-28T07:18:32.554Z,5.70
2018-07-28T07:21:00.154Z,6.33
2018-07-28T07:23:27.712Z,6.33
2018-07-28T07:25:55.264Z,6.20
2018-07-28T07:28:22.857Z,5.70
2018-07-28T07:30:51.188Z,5.97
2018-07-28T07:33:18.748Z,5.87
2018-07-28T07:35:46.394Z,6.60
2018-07-28T07:38:13.957Z,6.75
2018-07-28T07:40:41.616Z,6.30
2018-07-28T07:43:09.206Z,6.07
2018-07-28T07:45:36.755Z,5.57
2018-07-28T07:48:04.313Z,4.87
2018-07-28T07:50:31.947Z,5.47
2018-07-28T07:52:59.500Z,5.63
2018-07-28T07:55:27.050Z,4.93
2018-07-28T07:57:55.251Z,4.80
2018-07-28T08:00:22.814Z,5.10
2018-07-28T08:02:50.369Z,4.63
2018-07-28T08:05:17.968Z,4.50
2018-07-28T08:07:45.585Z,4.77
2018-07-28T08:10:13.143Z,4.93
2018-07-28T08:12:40.774Z,5.20
2018-07-28T08:15:08.300Z,4.67
2018-07-28T08:17:35.862Z,5.30
2018-07-28T08:20:03.495Z,4.97
2018-07-28T08:22:31.048Z,4.70
2018-07-28T08:24:58.604Z,4.67
2018-07-28T08:27:27.031Z,4.67
2018-07-28T08:29:54.590Z,4.77
2018-07-28T08:32:22.144Z,4.47
2018-07-28T08:34:50.634Z,4.70
2018-07-28T08:37:18.206Z,4.70
2018-07-28T08:39:45.764Z,5.33
2018-07-28T08:42:15.821Z,4.67
2018-07-28T08:44:44.150Z,4.87
2018-07-28T08:47:11.716Z,5.03
2018-07-28T08:49:39.330Z,6.07
2018-07-28T08:52:06.867Z,4.87
2018-07-28T08:54:34.519Z,5.50
2018-07-28T08:57:02.775Z,5.33
2018-07-28T08:59:30.338Z,5.17
2018-07-28T09:01:57.889Z,5.33
2018-07-28T09:04:25.500Z,5.13
2018-07-28T09:06:53.825Z,5.47
2018-07-28T09:09:21.384Z,5.50
2018-07-28T09:11:49.011Z,5.90
2018-07-28T09:14:16.569Z,5.40
2018-07-28T09:16:44.889Z,5.40
2018-07-28T09:19:12.492Z,5.70
2018-07-28T09:21:40.052Z,5.93
2018-07-28T09:24:07.623Z,6.10
2018-07-28T09:26:35.235Z,6.37
2018-07-28T09:29:02.823Z,6.55
2018-07-28T09:31:30.406Z,6.33
2018-07-28T09:33:58.341Z,6.80
2018-07-28T09:36:25.899Z,6.95
2018-07-28T09:38:53.457Z,7.03
2018-07-28T09:41:21.422Z,6.93
2018-07-28T09:43:48.975Z,6.17
2018-07-28T09:46:16.589Z,6.60
2018-07-28T09:48:45.142Z,6.60
2018-07-28T09:51:12.738Z,6.70
2018-07-28T09:53:40.297Z,7.50
2018-07-28T09:56:07.912Z,8.03
2018-07-28T09:58:35.449Z,7.33
2018-07-28T10:01:02.999Z,7.90
2018-07-28T10:03:31.402Z,7.90
2018-07-28T10:05:58.967Z,8.13
2018-07-28T10:08:26.519Z,7.53
2018-07-28T10:10:55.233Z,7.10
2018-07-28T10:13:22.789Z,7.90
2018-07-28T10:15:50.354Z,7.87
2018-07-28T10:18:17.995Z,8.97
2018-07-28T10:20:45.552Z,8.00
2018-07-28T10:23:13.117Z,6.73
2018-07-28T10:25:41.215Z,6.87
2018-07-28T10:28:08.767Z,6.10
2018-07-28T10:30:36.325Z,6.80
2018-07-28T10:33:05.052Z,7.00
2018-07-28T10:35:32.606Z,5.90
2018-07-28T10:38:00.162Z,6.28
2018-07-28T10:40:28.123Z,6.40
2018-07-28T10:42:55.673Z,5.80
2018-07-28T10:45:23.230Z,5.57
2018-07-28T10:47:50.828Z,5.93
2018-07-28T10:50:18.387Z,5.20
2018-07-28T10:52:45.935Z,4.27
2018-07-28T10:55:13.588Z,4.80
2018-07-28T10:57:41.154Z,4.53
2018-07-28T11:00:08.777Z,4.40
2018-07-28T11:02:36.366Z,4.73
2018-07-28T11:05:03.936Z,4.67
2018-07-28T11:07:31.501Z,4.60
2018-07-28T11:09:59.150Z,5.40
2018-07-28T11:12:26.749Z,5.10
2018-07-28T11:14:54.315Z,4.47
2018-07-28T11:17:22.689Z,4.87
2018-07-28T11:19:50.239Z,3.73
2018-07-28T11:22:17.795Z,3.87
2018-07-28T11:24:45.409Z,4.10
2018-07-28T11:27:12.963Z,4.43
2018-07-28T11:29:40.515Z,4.37
2018-07-28T11:32:36.445Z,3.97
2018-07-28T11:35:41.502Z,3.90
2018-07-28T11:38:46.080Z,4.47
2018-07-28T11:41:31.351Z,4.03
2018-07-28T11:44:35.973Z,4.45
2018-07-28T11:47:03.533Z,4.60
2018-07-28T11:49:31.096Z,4.37
2018-07-28T11:51:58.689Z,4.00
2018-07-28T11:54:27.011Z,4.20
2018-07-28T11:56:54.563Z,3.97
2018-07-28T11:59:22.163Z,4.10
2018-07-28T12:01:49.747Z,4.20
2018-07-28T12:04:17.276Z,3.93
2018-07-28T12:06:44.879Z,4.23
2018-07-28T12:09:13.201Z,4.07
2018-07-28T12:11:40.756Z,4.33
2018-07-28T12:14:08.409Z,4.10
2018-07-28T12:16:35.967Z,4.53
2018-07-28T12:19:03.530Z,4.10
2018-07-28T12:21:31.727Z,3.80
2018-07-28T12:23:59.339Z,4.30
2018-07-28T12:26:26.841Z,3.80
2018-07-28T12:28:54.423Z,4.10
2018-07-28T12:31:21.983Z,4.20
2018-07-28T12:33:49.538Z,4.30
2018-07-28T12:36:17.170Z,4.23
2018-07-28T12:38:44.722Z,4.20
2018-07-28T12:41:54.016Z,3.97
2018-07-28T12:44:21.568Z,4.10
2018-07-28T12:46:49.157Z,3.50
2018-07-28T12:49:33.772Z,3.97
2018-07-28T12:52:06.903Z,4.20
2018-07-28T12:54:46.283Z,4.30
2018-07-28T12:57:13.872Z,3.97
2018-07-28T12:59:41.430Z,4.17
2018-07-28T13:02:08.982Z,4.20
2018-07-28T13:04:36.632Z,4.23
2018-07-28T13:07:04.183Z,3.80
2018-07-28T13:09:31.735Z,3.80
2018-07-28T13:11:59.330Z,3.70
2018-07-28T13:14:26.886Z,4.27
2018-07-28T13:16:54.440Z,4.13
2018-07-28T13:19:22.041Z,3.93
2018-07-28T13:21:49.601Z,4.30
2018-07-28T13:24:17.150Z,4.43
2018-07-28T13:26:45.230Z,4.07
2018-07-28T13:29:12.791Z,3.80
2018-07-28T13:31:40.339Z,3.97
2018-07-28T13:34:08.501Z,3.73
2018-07-28T13:36:36.062Z,3.80
2018-07-28T13:39:03.627Z,3.23
2018-07-28T13:41:31.267Z,3.40
2018-07-28T13:43:58.822Z,3.70
2018-07-28T13:46:26.378Z,3.20
2018-07-28T13:48:53.985Z,2.93
2018-07-28T13:51:21.538Z,3.50
2018-07-28T13:53:49.104Z,3.80
2018-07-28T13:56:16.703Z,3.70
2018-07-28T13:58:44.267Z,4.07
2018-07-28T14:01:12.589Z,4.07
2018-07-28T14:03:40.185Z,3.80
2018-07-28T14:06:07.805Z,3.47
2018-07-28T14:08:35.299Z,3.30
2018-07-28T14:11:02.920Z,3.87
2018-07-28T14:13:30.476Z,4.10
2018-07-28T14:15:58.031Z,4.00
2018-07-28T14:18:26.212Z,4.27
2018-07-28T14:20:53.703Z,4.07
2018-07-28T14:23:21.259Z,3.73
2018-07-28T14:25:48.856Z,3.67
2018-07-28T14:28:16.414Z,3.90
2018-07-28T14:30:43.973Z,3.70
2018-07-28T14:33:11.591Z,3.80
2018-07-28T14:35:39.143Z,3.70
2018-07-28T14:38:06.704Z,3.43
2018-07-28T14:40:34.699Z,3.20
2018-07-28T14:43:02.261Z,3.67
2018-07-28T14:45:29.822Z,3.77
2018-07-28T14:47:58.403Z,3.43
2018-07-28T14:50:25.957Z,3.63
2018-07-28T14:52:53.523Z,3.13
2018-07-28T14:55:21.246Z,2.93
2018-07-28T14:57:48.711Z,3.30
2018-07-28T15:00:16.268Z,2.83
2018-07-28T15:02:44.633Z,3.10
2018-07-28T15:05:12.954Z,3.17
2018-07-28T15:07:40.517Z,3.10
2018-07-28T15:10:08.115Z,2.80
2018-07-28T15:12:35.675Z,2.90
2018-07-28T15:15:03.237Z,2.90
2018-07-28T15:17:31.809Z,2.90
2018-07-28T15:19:59.370Z,3.30
2018-07-28T15:22:26.938Z,2.97
2018-07-28T15:24:55.353Z,2.80
2018-07-28T15:27:22.957Z,2.85
2018-07-28T15:29:50.512Z,2.57
2018-07-28T15:32:18.114Z,2.53
2018-07-28T15:34:45.694Z,2.57
2018-07-28T15:37:13.246Z,2.58
2018-07-28T15:39:41.895Z,2.60
2018-07-28T15:42:09.451Z,2.60
2018-07-28T15:44:37.004Z,2.70
2018-07-28T15:47:05.295Z,2.47
2018-07-28T15:49:32.927Z,1.90
2018-07-28T15:52:00.400Z,2.40
2018-07-28T15:54:28.593Z,2.30
2018-07-28T15:56:56.160Z,1.97
2018-07-28T15:59:23.714Z,1.93
2018-07-28T16:01:51.386Z,2.20
2018-07-28T16:04:18.912Z,2.23
2018-07-28T16:06:46.462Z,1.97
2018-07-28T16:09:14.107Z,1.70
2018-07-28T16:11:42.438Z,2.00
2018-07-28T16:14:10.249Z,1.50
2018-07-28T16:16:38.624Z,1.73
2018-07-28T16:19:06.182Z,1.77
2018-07-28T16:21:33.758Z,1.77
2018-07-28T16:24:01.400Z,1.60
2018-07-28T16:26:28.960Z,1.80
2018-07-28T16:28:56.516Z,1.62
2018-07-28T16:31:24.495Z,1.50
2018-07-28T16:33:52.106Z,1.43
2018-07-28T16:36:19.658Z,1.57
2018-07-28T16:38:47.267Z,1.10
2018-07-28T16:41:14.875Z,1.90
2018-07-28T16:43:42.383Z,1.30
2018-07-28T16:46:10.028Z,1.40
2018-07-28T16:48:37.576Z,1.23
2018-07-28T16:51:05.142Z,1.60
2018-07-28T16:53:32.740Z,1.53
2018-07-28T16:56:00.310Z,1.43
2018-07-28T16:58:27.853Z,1.20
2018-07-28T17:00:55.456Z,2.13
2018-07-28T17:03:23.777Z,3.50
2018-07-28T17:05:51.327Z,1.37
2018-07-28T17:08:18.986Z,1.10
2018-07-28T17:10:46.535Z,1.43
2018-07-28T17:13:14.092Z,1.30
2018-07-28T17:15:41.727Z,1.20
2018-07-28T17:18:10.056Z,1.57
2018-07-28T17:20:37.609Z,1.40
2018-07-28T17:23:05.250Z,1.47
2018-07-28T17:25:32.807Z,1.23
2018-07-28T17:28:01.128Z,1.63
2018-07-28T17:30:28.734Z,1.40
2018-07-28T17:32:56.288Z,1.70
2018-07-28T17:35:23.835Z,1.40
2018-07-28T17:37:51.433Z,1.40
2018-07-28T17:40:18.986Z,1.60
2018-07-28T17:42:47.310Z,1.60
2018-07-28T17:45:15.486Z,1.40
2018-07-28T17:47:43.033Z,1.30
2018-07-28T17:50:10.595Z,1.30
2018-07-28T17:52:38.234Z,1.60
2018-07-28T17:55:05.784Z,1.43
2018-07-28T17:57:34.105Z,1.37
2018-07-28T18:00:01.843Z,1.40
2018-07-28T18:02:29.302Z,1.33
2018-07-28T18:04:56.857Z,1.67
2018-07-28T18:07:25.252Z,1.57
2018-07-28T18:09:52.819Z,1.70
2018-07-28T18:12:20.376Z,1.27
2018-07-28T18:14:48.361Z,1.30
2018-07-28T18:17:15.933Z,1.43
2018-07-28T18:19:43.483Z,1.50
2018-07-28T18:22:11.119Z,1.13
2018-07-28T18:24:38.682Z,1.30
2018-07-28T18:27:06.258Z,1.43
2018-07-28T18:29:34.753Z,1.30
2018-07-28T18:32:02.306Z,1.50
2018-07-28T18:34:29.863Z,1.37
2018-07-28T18:36:57.500Z,1.50
2018-07-28T18:39:25.060Z,1.30
2018-07-28T18:41:52.765Z,1.00
2018-07-28T18:44:20.268Z,1.20
2018-07-28T18:46:47.837Z,1.30
2018-07-28T18:49:16.170Z,1.37
2018-07-28T18:51:43.765Z,1.40
2018-07-28T18:54:11.325Z,1.50
2018-07-28T18:56:38.940Z,1.37
2018-07-28T18:59:07.271Z,1.70
2018-07-28T19:01:35.605Z,1.10
2018-07-28T19:04:03.162Z,1.47
2018-07-28T19:06:30.808Z,1.37
2018-07-28T19:08:58.365Z,1.50
2018-07-28T19:11:25.911Z,1.47
2018-07-28T19:13:53.517Z,1.20
2018-07-28T19:16:21.080Z,1.60
2018-07-28T19:18:51.484Z,1.60
2018-07-28T19:21:19.086Z,1.50
2018-07-28T19:23:55.710Z,2.13
2018-07-28T19:26:23.300Z,1.80
2018-07-28T19:28:50.864Z,1.80
2018-07-28T19:31:18.412Z,1.47
2018-07-28T19:33:46.010Z,1.63
2018-07-28T19:36:13.573Z,1.50
2018-07-28T19:38:41.118Z,1.60
2018-07-28T19:41:08.753Z,1.55
2018-07-28T19:43:36.309Z,1.80
2018-07-28T19:46:03.858Z,1.70
2018-07-28T19:48:31.466Z,1.43
2018-07-28T19:50:59.032Z,1.60
2018-07-28T19:53:26.596Z,1.50
2018-07-28T19:55:54.639Z,1.77
2018-07-28T19:58:22.199Z,1.70
2018-07-28T20:00:49.769Z,1.50
2018-07-28T20:03:17.440Z,1.37
2018-07-28T20:05:44.960Z,1.43
2018-07-28T20:08:12.518Z,1.47
2018-07-28T20:10:40.151Z,1.80
2018-07-28T20:13:07.705Z,1.30
2018-07-28T20:15:35.269Z,1.27
2018-07-28T20:18:02.875Z,1.50
2018-07-28T20:20:30.427Z,1.70
2018-07-28T20:22:57.992Z,1.40
2018-07-28T20:25:25.617Z,1.53
2018-07-28T20:27:53.936Z,1.50
2018-07-28T20:30:21.494Z,1.43
2018-07-28T20:32:49.497Z,1.40
2018-07-28T20:35:17.058Z,1.70
2018-07-28T20:37:44.610Z,2.07
2018-07-28T20:40:12.225Z,2.10
2018-07-28T20:42:40.559Z,1.70
2018-07-28T20:45:08.117Z,1.70
2018-07-28T20:47:35.715Z,2.07
2018-07-28T20:50:03.274Z,1.77
2018-07-28T20:52:30.833Z,1.80
2018-07-28T20:54:58.443Z,1.67
2018-07-28T20:57:26.000Z,1.60
2018-07-28T20:59:53.550Z,1.63
2018-07-28T21:02:21.554Z,1.63
2018-07-28T21:04:49.102Z,1.73
2018-07-28T21:07:16.662Z,1.57
2018-07-28T21:09:45.086Z,1.50
2018-07-28T21:12:12.612Z,1.70
2018-07-28T21:14:40.163Z,1.57
2018-07-28T21:17:07.767Z,1.27
2018-07-28T21:19:35.322Z,1.70
2018-07-28T21:22:02.882Z,1.67
2018-07-28T21:24:30.486Z,1.77
2018-07-28T21:26:58.038Z,1.80
2018-07-28T21:29:26.362Z,1.70
2018-07-28T21:31:54.424Z,1.70
2018-07-28T21:34:21.982Z,1.80
2018-07-28T21:36:49.540Z,2.43
2018-07-28T21:39:17.484Z,2.27
2018-07-28T21:41:45.040Z,2.20
2018-07-28T21:44:13.366Z,2.10
2018-07-28T21:46:40.962Z,2.43
2018-07-28T21:49:08.529Z,3.20
2018-07-28T21:51:36.875Z,2.70
2018-07-28T21:54:06.902Z,1.97
2018-07-28T21:56:32.493Z,2.37
2018-07-28T21:59:00.051Z,2.10
2018-07-28T22:01:27.660Z,2.17
2018-07-28T22:03:55.210Z,2.30
2018-07-28T22:06:22.769Z,2.30
2018-07-28T22:08:50.915Z,2.30
2018-07-28T22:11:18.469Z,2.17
2018-07-28T22:13:46.025Z,2.20
2018-07-28T22:16:13.616Z,2.90
2018-07-28T22:18:41.172Z,2.70
2018-07-28T22:21:08.729Z,2.80
2018-07-28T22:23:37.306Z,2.23
2018-07-28T22:26:04.868Z,2.60
2018-07-28T22:28:32.429Z,2.47
2018-07-28T22:31:00.011Z,1.97
2018-07-28T22:33:27.563Z,1.87
2018-07-28T22:35:55.121Z,1.90
2018-07-28T22:38:22.715Z,2.00
2018-07-28T22:40:51.035Z,2.05
2018-07-28T22:43:18.614Z,2.33
2018-07-28T22:45:46.233Z,2.00
2018-07-28T22:48:13.791Z,2.03
2018-07-28T22:50:42.115Z,2.57
2018-07-28T22:53:09.701Z,2.10
2018-07-28T22:55:37.261Z,2.20
2018-07-28T22:58:04.819Z,2.20
2018-07-28T23:00:32.415Z,2.33
2018-07-28T23:03:00.735Z,2.45
2018-07-28T23:05:28.291Z,2.70
2018-07-28T23:07:56.884Z,2.30
2018-07-28T23:10:24.438Z,2.10
2018-07-28T23:12:51.987Z,2.17
2018-07-28T23:15:19.571Z,2.10
2018-07-28T23:17:47.128Z,2.37
2018-07-28T23:20:14.684Z,2.00
2018-07-28T23:22:42.276Z,2.27
2018-07-28T23:25:09.839Z,2.40
2018-07-28T23:27:37.391Z,2.20
2018-07-28T23:30:05.039Z,2.50
2018-07-28T23:32:32.558Z,2.57
2018-07-28T23:35:00.110Z,2.33
2018-07-28T23:37:28.473Z,2.40
2018-07-28T23:39:56.050Z,2.30
2018-07-28T23:42:23.588Z,2.60
2018-07-28T23:44:51.177Z,2.40
2018-07-28T23:47:19.507Z,2.50
2018-07-28T23:49:47.061Z,2.80
2018-07-28T23:52:14.668Z,2.90
2018-07-28T23:54:42.990Z,2.90
2018-07-28T23:57:10.547Z,2.60
2018-07-28T23:59:38.139Z,2.63
